sensor_id;sensor_type;location;lat;lon;timestamp;pressure;altitude;pressure_sealevel;temperature;humidity
54920;BME280;63804;53.120;8.764;2023-02-19T00:01:00;101533.75;;;8.74;50.62
54920;BME280;63804;53.120;8.764;2023-02-19T00:03:26;101530.25;;;8.74;50.88
54920;BME280;63804;53.120;8.764;2023-02-19T00:05:52;101529.22;;;8.69;50.58
54920;BME280;63804;53.120;8.764;2023-02-19T00:08:17;101526.78;;;8.59;50.83
54920;BME280;63804;53.120;8.764;2023-02-19T00:10:43;101527.78;;;8.63;50.94
54920;BME280;63804;53.120;8.764;2023-02-19T00:13:08;101530.81;;;8.62;50.72
54920;BME280;63804;53.120;8.764;2023-02-19T00:15:34;101531.78;;;8.66;50.94
54920;BME280;63804;53.120;8.764;2023-02-19T00:17:59;101533.53;;;8.62;50.82
54920;BME280;63804;53.120;8.764;2023-02-19T00:20:25;101535.25;;;8.58;50.95
54920;BME280;63804;53.120;8.764;2023-02-19T00:22:50;101539.59;;;8.59;50.98
54920;BME280;63804;53.120;8.764;2023-02-19T00:25:15;101543.53;;;8.52;51.26
54920;BME280;63804;53.120;8.764;2023-02-19T00:27:41;101540.69;;;8.58;51.02
54920;BME280;63804;53.120;8.764;2023-02-19T00:30:07;101543.16;;;8.45;51.35
54920;BME280;63804;53.120;8.764;2023-02-19T00:32:32;101537.66;;;8.37;51.33
54920;BME280;63804;53.120;8.764;2023-02-19T00:34:57;101539.31;;;8.46;51.35
54920;BME280;63804;53.120;8.764;2023-02-19T00:37:23;101531.06;;;8.51;51.21
54920;BME280;63804;53.120;8.764;2023-02-19T00:39:48;101528.78;;;8.45;51.18
54920;BME280;63804;53.120;8.764;2023-02-19T00:42:14;101535.88;;;8.32;51.37
54920;BME280;63804;53.120;8.764;2023-02-19T00:44:39;101534.53;;;8.29;51.17
54920;BME280;63804;53.120;8.764;2023-02-19T00:47:04;101543.94;;;8.23;51.51
54920;BME280;63804;53.120;8.764;2023-02-19T00:49:30;101539.66;;;8.31;51.27
54920;BME280;63804;53.120;8.764;2023-02-19T00:51:56;101535.44;;;8.39;51.17
54920;BME280;63804;53.120;8.764;2023-02-19T00:54:22;101543.59;;;8.39;51.10
54920;BME280;63804;53.120;8.764;2023-02-19T00:56:48;101539.78;;;8.26;50.95
54920;BME280;63804;53.120;8.764;2023-02-19T00:59:14;101547.63;;;8.27;51.02
54920;BME280;63804;53.120;8.764;2023-02-19T01:01:40;101537.97;;;8.35;50.80
54920;BME280;63804;53.120;8.764;2023-02-19T01:04:05;101535.56;;;8.33;50.71
54920;BME280;63804;53.120;8.764;2023-02-19T01:06:31;101540.19;;;8.19;50.75
54920;BME280;63804;53.120;8.764;2023-02-19T01:08:57;101543.63;;;8.25;50.92
54920;BME280;63804;53.120;8.764;2023-02-19T01:11:22;101541.63;;;8.16;50.79
54920;BME280;63804;53.120;8.764;2023-02-19T01:13:48;101526.84;;;8.09;51.02
54920;BME280;63804;53.120;8.764;2023-02-19T01:16:21;101539.44;;;7.91;51.49
54920;BME280;63804;53.120;8.764;2023-02-19T01:18:49;101548.50;;;8.00;50.94
54920;BME280;63804;53.120;8.764;2023-02-19T01:21:17;101544.47;;;8.11;50.73
54920;BME280;63804;53.120;8.764;2023-02-19T01:23:43;101550.00;;;8.06;50.92
54920;BME280;63804;53.120;8.764;2023-02-19T01:26:12;101553.13;;;8.13;50.89
54920;BME280;63804;53.120;8.764;2023-02-19T01:28:45;101557.16;;;8.02;50.80
54920;BME280;63804;53.120;8.764;2023-02-19T01:31:19;101542.47;;;7.89;51.27
54920;BME280;63804;53.120;8.764;2023-02-19T01:33:46;101546.97;;;8.08;50.84
54920;BME280;63804;53.120;8.764;2023-02-19T01:36:13;101551.50;;;8.12;50.52
54920;BME280;63804;53.120;8.764;2023-02-19T01:38:38;101552.28;;;8.13;50.75
54920;BME280;63804;53.120;8.764;2023-02-19T01:41:06;101554.72;;;8.14;50.65
54920;BME280;63804;53.120;8.764;2023-02-19T01:43:33;101547.28;;;8.06;50.71
54920;BME280;63804;53.120;8.764;2023-02-19T01:45:59;101547.28;;;8.06;50.42
54920;BME280;63804;53.120;8.764;2023-02-19T01:48:34;101547.56;;;8.19;50.46
54920;BME280;63804;53.120;8.764;2023-02-19T01:51:06;101546.78;;;8.04;50.68
54920;BME280;63804;53.120;8.764;2023-02-19T01:53:37;101549.31;;;8.01;50.76
54920;BME280;63804;53.120;8.764;2023-02-19T01:56:04;101551.13;;;8.05;50.64
54920;BME280;63804;53.120;8.764;2023-02-19T01:58:32;101557.47;;;8.01;50.96
54920;BME280;63804;53.120;8.764;2023-02-19T02:01:00;101554.25;;;7.98;50.93
54920;BME280;63804;53.120;8.764;2023-02-19T02:03:27;101551.41;;;8.04;50.82
54920;BME280;63804;53.120;8.764;2023-02-19T02:05:58;101558.38;;;8.10;50.63
54920;BME280;63804;53.120;8.764;2023-02-19T02:08:26;101561.38;;;8.08;50.72
54920;BME280;63804;53.120;8.764;2023-02-19T02:11:10;101559.75;;;8.07;50.75
54920;BME280;63804;53.120;8.764;2023-02-19T02:13:37;101565.19;;;8.07;50.61
54920;BME280;63804;53.120;8.764;2023-02-19T02:16:20;101558.44;;;8.19;50.53
54920;BME280;63804;53.120;8.764;2023-02-19T02:18:56;101560.88;;;8.06;50.57
54920;BME280;63804;53.120;8.764;2023-02-19T02:27:29;101567.44;;;8.05;50.73
54920;BME280;63804;53.120;8.764;2023-02-19T02:35:44;101555.28;;;7.89;50.58
54920;BME280;63804;53.120;8.764;2023-02-19T02:38:13;101555.50;;;7.78;50.99
54920;BME280;63804;53.120;8.764;2023-02-19T02:40:42;101565.16;;;7.85;50.60
54920;BME280;63804;53.120;8.764;2023-02-19T02:43:08;101567.25;;;7.88;50.70
54920;BME280;63804;53.120;8.764;2023-02-19T02:45:33;101560.44;;;7.76;50.80
54920;BME280;63804;53.120;8.764;2023-02-19T02:48:01;101558.22;;;7.78;50.64
54920;BME280;63804;53.120;8.764;2023-02-19T02:50:35;101556.00;;;7.67;50.87
54920;BME280;63804;53.120;8.764;2023-02-19T02:53:26;101553.00;;;7.68;50.59
54920;BME280;63804;53.120;8.764;2023-02-19T02:56:14;101561.00;;;7.59;50.63
54920;BME280;63804;53.120;8.764;2023-02-19T02:58:41;101559.03;;;7.51;50.74
54920;BME280;63804;53.120;8.764;2023-02-19T03:01:10;101558.91;;;7.70;50.57
54920;BME280;63804;53.120;8.764;2023-02-19T03:04:03;101559.22;;;7.69;50.18
54920;BME280;63804;53.120;8.764;2023-02-19T03:06:33;101569.06;;;7.51;50.38
54920;BME280;63804;53.120;8.764;2023-02-19T03:09:10;101578.25;;;7.69;49.70
54920;BME280;63804;53.120;8.764;2023-02-19T03:11:40;101590.31;;;7.63;49.70
54920;BME280;63804;53.120;8.764;2023-02-19T03:14:33;101585.88;;;7.39;50.01
54920;BME280;63804;53.120;8.764;2023-02-19T03:17:26;101606.59;;;7.49;49.65
54920;BME280;63804;53.120;8.764;2023-02-19T03:20:14;101595.03;;;7.71;49.26
54920;BME280;63804;53.120;8.764;2023-02-19T03:22:41;101598.06;;;7.55;49.47
54920;BME280;63804;53.120;8.764;2023-02-19T03:25:12;101601.47;;;7.47;49.81
54920;BME280;63804;53.120;8.764;2023-02-19T03:27:59;101598.84;;;7.42;49.95
54920;BME280;63804;53.120;8.764;2023-02-19T03:30:30;101610.84;;;7.55;49.85
54920;BME280;63804;53.120;8.764;2023-02-19T03:33:00;101612.66;;;7.73;49.37
54920;BME280;63804;53.120;8.764;2023-02-19T03:35:30;101614.16;;;7.52;49.57
54920;BME280;63804;53.120;8.764;2023-02-19T03:38:15;101620.38;;;7.52;49.58
54920;BME280;63804;53.120;8.764;2023-02-19T03:41:15;101628.94;;;7.46;49.72
54920;BME280;63804;53.120;8.764;2023-02-19T03:44:08;101637.41;;;7.58;49.42
54920;BME280;63804;53.120;8.764;2023-02-19T03:54:46;101652.19;;;7.66;49.16
54920;BME280;63804;53.120;8.764;2023-02-19T03:59:59;101665.69;;;7.57;49.29
54920;BME280;63804;53.120;8.764;2023-02-19T04:02:32;101675.75;;;7.70;49.32
54920;BME280;63804;53.120;8.764;2023-02-19T04:05:32;101675.75;;;7.56;49.07
54920;BME280;63804;53.120;8.764;2023-02-19T04:08:05;101682.19;;;7.60;49.43
54920;BME280;63804;53.120;8.764;2023-02-19T04:10:33;101683.41;;;7.68;49.33
54920;BME280;63804;53.120;8.764;2023-02-19T04:13:03;101692.66;;;7.81;49.10
54920;BME280;63804;53.120;8.764;2023-02-19T04:15:33;101693.91;;;7.75;49.03
54920;BME280;63804;53.120;8.764;2023-02-19T04:18:06;101705.25;;;7.63;49.33
54920;BME280;63804;53.120;8.764;2023-02-19T04:20:38;101704.13;;;7.64;49.57
54920;BME280;63804;53.120;8.764;2023-02-19T04:23:06;101718.78;;;7.49;49.73
54920;BME280;63804;53.120;8.764;2023-02-19T04:25:32;101722.53;;;7.53;49.69
54920;BME280;63804;53.120;8.764;2023-02-19T04:28:00;101727.91;;;7.72;49.39
54920;BME280;63804;53.120;8.764;2023-02-19T04:30:25;101723.41;;;7.49;49.66
54920;BME280;63804;53.120;8.764;2023-02-19T04:32:51;101726.25;;;7.57;49.68
54920;BME280;63804;53.120;8.764;2023-02-19T04:35:16;101728.94;;;7.76;49.24
54920;BME280;63804;53.120;8.764;2023-02-19T04:37:42;101736.66;;;7.69;49.08
54920;BME280;63804;53.120;8.764;2023-02-19T04:40:08;101746.41;;;7.70;49.43
54920;BME280;63804;53.120;8.764;2023-02-19T04:42:33;101745.94;;;7.49;49.65
54920;BME280;63804;53.120;8.764;2023-02-19T04:44:59;101742.72;;;7.47;50.01
54920;BME280;63804;53.120;8.764;2023-02-19T04:47:24;101752.81;;;7.60;49.58
54920;BME280;63804;53.120;8.764;2023-02-19T04:49:50;101744.47;;;7.57;49.42
54920;BME280;63804;53.120;8.764;2023-02-19T04:52:15;101756.34;;;7.61;49.63
54920;BME280;63804;53.120;8.764;2023-02-19T04:54:41;101759.31;;;7.65;49.46
54920;BME280;63804;53.120;8.764;2023-02-19T04:57:09;101762.06;;;7.59;49.59
54920;BME280;63804;53.120;8.764;2023-02-19T04:59:34;101766.38;;;7.47;49.71
54920;BME280;63804;53.120;8.764;2023-02-19T05:01:59;101771.75;;;7.66;49.44
54920;BME280;63804;53.120;8.764;2023-02-19T05:04:25;101768.34;;;7.60;49.54
54920;BME280;63804;53.120;8.764;2023-02-19T05:06:50;101777.69;;;7.68;49.24
54920;BME280;63804;53.120;8.764;2023-02-19T05:09:16;101781.75;;;7.70;49.34
54920;BME280;63804;53.120;8.764;2023-02-19T05:11:41;101779.22;;;7.74;49.14
54920;BME280;63804;53.120;8.764;2023-02-19T05:14:07;101781.06;;;7.78;49.06
54920;BME280;63804;53.120;8.764;2023-02-19T05:16:32;101796.00;;;7.62;49.48
54920;BME280;63804;53.120;8.764;2023-02-19T05:18:58;101797.72;;;7.58;49.68
54920;BME280;63804;53.120;8.764;2023-02-19T05:21:23;101806.00;;;7.67;49.24
54920;BME280;63804;53.120;8.764;2023-02-19T05:23:49;101799.72;;;7.66;49.31
54920;BME280;63804;53.120;8.764;2023-02-19T05:26:17;101813.03;;;7.68;49.45
54920;BME280;63804;53.120;8.764;2023-02-19T05:28:44;101810.75;;;7.75;49.46
54920;BME280;63804;53.120;8.764;2023-02-19T05:31:11;101824.56;;;7.78;49.14
54920;BME280;63804;53.120;8.764;2023-02-19T05:33:37;101830.44;;;7.67;49.45
54920;BME280;63804;53.120;8.764;2023-02-19T05:36:08;101837.44;;;7.54;49.79
54920;BME280;63804;53.120;8.764;2023-02-19T05:38:35;101845.22;;;7.60;49.42
54920;BME280;63804;53.120;8.764;2023-02-19T05:41:11;101849.84;;;7.60;49.67
54920;BME280;63804;53.120;8.764;2023-02-19T05:43:38;101853.16;;;7.57;49.68
54920;BME280;63804;53.120;8.764;2023-02-19T05:46:05;101857.88;;;7.51;49.66
54920;BME280;63804;53.120;8.764;2023-02-19T05:48:31;101864.53;;;7.59;49.69
54920;BME280;63804;53.120;8.764;2023-02-19T05:51:04;101875.59;;;7.63;49.38
54920;BME280;63804;53.120;8.764;2023-02-19T05:53:30;101881.06;;;7.44;49.97
54920;BME280;63804;53.120;8.764;2023-02-19T05:55:56;101883.63;;;7.54;49.71
54920;BME280;63804;53.120;8.764;2023-02-19T05:58:21;101889.06;;;7.54;49.82
54920;BME280;63804;53.120;8.764;2023-02-19T06:00:47;101885.38;;;7.64;49.46
54920;BME280;63804;53.120;8.764;2023-02-19T06:03:12;101876.56;;;7.53;49.56
54920;BME280;63804;53.120;8.764;2023-02-19T06:05:37;101883.03;;;7.57;49.55
54920;BME280;63804;53.120;8.764;2023-02-19T06:08:03;101885.38;;;7.64;49.39
54920;BME280;63804;53.120;8.764;2023-02-19T06:10:28;101896.75;;;7.66;49.23
54920;BME280;63804;53.120;8.764;2023-02-19T06:12:54;101895.66;;;7.48;49.68
54920;BME280;63804;53.120;8.764;2023-02-19T06:15:20;101897.78;;;7.51;49.59
54920;BME280;63804;53.120;8.764;2023-02-19T06:17:46;101908.06;;;7.54;49.51
54920;BME280;63804;53.120;8.764;2023-02-19T06:20:11;101914.44;;;7.44;49.72
54920;BME280;63804;53.120;8.764;2023-02-19T06:22:37;101916.88;;;7.46;49.87
54920;BME280;63804;53.120;8.764;2023-02-19T06:25:02;101929.94;;;7.44;49.65
54920;BME280;63804;53.120;8.764;2023-02-19T06:27:28;101928.53;;;7.46;49.55
54920;BME280;63804;53.120;8.764;2023-02-19T06:29:53;101942.03;;;7.32;49.74
54920;BME280;63804;53.120;8.764;2023-02-19T06:32:19;101943.88;;;7.37;49.95
54920;BME280;63804;53.120;8.764;2023-02-19T06:34:44;101940.66;;;7.35;49.72
54920;BME280;63804;53.120;8.764;2023-02-19T06:37:10;101949.53;;;7.40;49.80
54920;BME280;63804;53.120;8.764;2023-02-19T06:39:35;101958.84;;;7.34;49.87
54920;BME280;63804;53.120;8.764;2023-02-19T06:42:00;101965.97;;;7.30;49.76
54920;BME280;63804;53.120;8.764;2023-02-19T06:44:26;101964.56;;;7.33;49.80
54920;BME280;63804;53.120;8.764;2023-02-19T06:46:54;101973.53;;;7.33;49.85
54920;BME280;63804;53.120;8.764;2023-02-19T06:49:19;101979.94;;;7.42;49.49
54920;BME280;63804;53.120;8.764;2023-02-19T06:51:45;101980.56;;;7.34;49.87
54920;BME280;63804;53.120;8.764;2023-02-19T06:54:10;101994.28;;;7.24;50.03
54920;BME280;63804;53.120;8.764;2023-02-19T06:56:37;101988.38;;;7.41;49.52
54920;BME280;63804;53.120;8.764;2023-02-19T06:59:11;101994.09;;;7.39;49.50
54920;BME280;63804;53.120;8.764;2023-02-19T07:01:39;102001.50;;;7.34;49.58
54920;BME280;63804;53.120;8.764;2023-02-19T07:04:05;101996.94;;;7.29;49.87
54920;BME280;63804;53.120;8.764;2023-02-19T07:06:32;102012.78;;;7.22;49.86
54920;BME280;63804;53.120;8.764;2023-02-19T07:08:59;102024.44;;;7.22;49.77
54920;BME280;63804;53.120;8.764;2023-02-19T07:11:25;102032.53;;;7.28;49.84
54920;BME280;63804;53.120;8.764;2023-02-19T07:13:54;102035.91;;;7.44;49.46
54920;BME280;63804;53.120;8.764;2023-02-19T07:16:20;102038.38;;;7.40;49.46
54920;BME280;63804;53.120;8.764;2023-02-19T07:18:45;102048.53;;;7.29;49.61
54920;BME280;63804;53.120;8.764;2023-02-19T07:21:12;102054.59;;;7.21;49.87
54920;BME280;63804;53.120;8.764;2023-02-19T07:23:38;102061.38;;;7.23;49.68
54920;BME280;63804;53.120;8.764;2023-02-19T07:26:07;102069.91;;;7.36;49.33
54920;BME280;63804;53.120;8.764;2023-02-19T07:28:33;102074.50;;;7.40;49.32
54920;BME280;63804;53.120;8.764;2023-02-19T07:30:59;102081.63;;;7.36;49.14
54920;BME280;63804;53.120;8.764;2023-02-19T07:33:25;102079.94;;;7.40;49.18
54920;BME280;63804;53.120;8.764;2023-02-19T07:35:51;102087.84;;;7.37;49.47
54920;BME280;63804;53.120;8.764;2023-02-19T07:38:20;102097.38;;;7.34;49.47
54920;BME280;63804;53.120;8.764;2023-02-19T07:40:59;102097.81;;;7.47;49.39
54920;BME280;63804;53.120;8.764;2023-02-19T07:43:27;102103.75;;;7.49;49.14
54920;BME280;63804;53.120;8.764;2023-02-19T07:45:53;102108.31;;;7.53;49.14
54920;BME280;63804;53.120;8.764;2023-02-19T07:48:19;102119.38;;;7.62;49.05
54920;BME280;63804;53.120;8.764;2023-02-19T07:50:54;102122.25;;;7.71;48.72
54920;BME280;63804;53.120;8.764;2023-02-19T07:53:21;102119.47;;;7.76;48.92
54920;BME280;63804;53.120;8.764;2023-02-19T07:55:48;102122.97;;;7.82;48.68
54920;BME280;63804;53.120;8.764;2023-02-19T07:58:14;102125.13;;;7.79;48.60
54920;BME280;63804;53.120;8.764;2023-02-19T08:00:39;102124.16;;;7.70;48.75
54920;BME280;63804;53.120;8.764;2023-02-19T08:03:05;102118.78;;;7.65;48.90
54920;BME280;63804;53.120;8.764;2023-02-19T08:05:33;102114.88;;;7.76;48.70
54920;BME280;63804;53.120;8.764;2023-02-19T08:08:00;102113.47;;;7.79;48.70
54920;BME280;63804;53.120;8.764;2023-02-19T08:10:26;102117.66;;;7.71;48.78
54920;BME280;63804;53.120;8.764;2023-02-19T08:13:15;102107.00;;;7.75;48.90
54920;BME280;63804;53.120;8.764;2023-02-19T08:15:44;102109.19;;;7.73;48.73
54920;BME280;63804;53.120;8.764;2023-02-19T08:18:10;102099.19;;;7.68;48.95
54920;BME280;63804;53.120;8.764;2023-02-19T08:20:36;102108.38;;;7.72;48.87
54920;BME280;63804;53.120;8.764;2023-02-19T08:23:01;102117.88;;;7.75;48.71
54920;BME280;63804;53.120;8.764;2023-02-19T08:25:33;102125.63;;;7.87;48.31
54920;BME280;63804;53.120;8.764;2023-02-19T08:27:59;102127.63;;;8.00;48.50
54920;BME280;63804;53.120;8.764;2023-02-19T08:30:28;102129.28;;;7.96;48.85
54920;BME280;63804;53.120;8.764;2023-02-19T08:32:54;102138.09;;;7.88;48.77
54920;BME280;63804;53.120;8.764;2023-02-19T08:35:20;102146.72;;;7.95;48.76
54920;BME280;63804;53.120;8.764;2023-02-19T08:37:46;102146.19;;;7.93;48.87
54920;BME280;63804;53.120;8.764;2023-02-19T08:40:11;102154.41;;;7.88;49.12
54920;BME280;63804;53.120;8.764;2023-02-19T08:42:37;102155.16;;;7.93;48.98
54920;BME280;63804;53.120;8.764;2023-02-19T08:45:03;102164.56;;;8.01;48.94
54920;BME280;63804;53.120;8.764;2023-02-19T08:47:29;102161.78;;;8.06;48.70
54920;BME280;63804;53.120;8.764;2023-02-19T08:49:54;102159.56;;;8.13;48.76
54920;BME280;63804;53.120;8.764;2023-02-19T08:52:19;102157.47;;;8.05;48.79
54920;BME280;63804;53.120;8.764;2023-02-19T08:54:45;102157.41;;;8.10;49.09
54920;BME280;63804;53.120;8.764;2023-02-19T08:57:10;102166.53;;;8.20;48.61
54920;BME280;63804;53.120;8.764;2023-02-19T08:59:36;102170.38;;;8.19;48.60
54920;BME280;63804;53.120;8.764;2023-02-19T09:02:01;102172.44;;;8.27;48.46
54920;BME280;63804;53.120;8.764;2023-02-19T09:04:26;102189.03;;;8.25;48.33
54920;BME280;63804;53.120;8.764;2023-02-19T09:06:52;102194.97;;;8.32;48.08
54920;BME280;63804;53.120;8.764;2023-02-19T09:09:17;102205.19;;;8.41;47.96
54920;BME280;63804;53.120;8.764;2023-02-19T09:11:43;102198.88;;;8.45;48.06
54920;BME280;63804;53.120;8.764;2023-02-19T09:14:08;102197.47;;;8.48;47.68
54920;BME280;63804;53.120;8.764;2023-02-19T09:16:35;102203.28;;;8.41;48.17
54920;BME280;63804;53.120;8.764;2023-02-19T09:19:01;102205.41;;;8.44;47.89
54920;BME280;63804;53.120;8.764;2023-02-19T09:21:26;102213.06;;;8.42;48.00
54920;BME280;63804;53.120;8.764;2023-02-19T09:23:51;102220.78;;;8.35;47.99
54920;BME280;63804;53.120;8.764;2023-02-19T09:26:17;102228.94;;;8.35;48.13
54920;BME280;63804;53.120;8.764;2023-02-19T09:28:42;102238.94;;;8.40;48.15
54920;BME280;63804;53.120;8.764;2023-02-19T09:31:10;102240.72;;;8.49;47.73
54920;BME280;63804;53.120;8.764;2023-02-19T09:33:36;102245.66;;;8.47;47.67
54920;BME280;63804;53.120;8.764;2023-02-19T09:36:02;102249.06;;;8.58;47.38
54920;BME280;63804;53.120;8.764;2023-02-19T09:38:28;102255.59;;;8.57;47.54
54920;BME280;63804;53.120;8.764;2023-02-19T09:40:56;102273.13;;;8.70;47.12
54920;BME280;63804;53.120;8.764;2023-02-19T09:43:23;102283.41;;;8.73;46.57
54920;BME280;63804;53.120;8.764;2023-02-19T09:45:59;102288.41;;;8.66;47.22
54920;BME280;63804;53.120;8.764;2023-02-19T09:48:25;102304.09;;;8.55;47.30
54920;BME280;63804;53.120;8.764;2023-02-19T09:50:51;102301.72;;;8.48;47.03
54920;BME280;63804;53.120;8.764;2023-02-19T09:53:24;102307.59;;;8.56;46.63
54920;BME280;63804;53.120;8.764;2023-02-19T09:55:52;102313.50;;;8.63;46.81
54920;BME280;63804;53.120;8.764;2023-02-19T09:58:21;102313.31;;;8.78;46.61
54920;BME280;63804;53.120;8.764;2023-02-19T10:00:50;102316.91;;;8.74;46.85
54920;BME280;63804;53.120;8.764;2023-02-19T10:03:31;102312.41;;;8.64;46.04
54920;BME280;63804;53.120;8.764;2023-02-19T10:06:01;102319.00;;;8.58;46.48
54920;BME280;63804;53.120;8.764;2023-02-19T10:08:31;102322.91;;;8.51;46.38
54920;BME280;63804;53.120;8.764;2023-02-19T10:10:59;102329.94;;;8.52;46.03
54920;BME280;63804;53.120;8.764;2023-02-19T10:13:35;102331.41;;;8.69;45.75
54920;BME280;63804;53.120;8.764;2023-02-19T10:16:04;102335.16;;;8.73;45.83
54920;BME280;63804;53.120;8.764;2023-02-19T10:18:39;102339.50;;;8.74;45.75
54920;BME280;63804;53.120;8.764;2023-02-19T10:21:07;102335.75;;;8.70;45.67
54920;BME280;63804;53.120;8.764;2023-02-19T10:23:35;102323.03;;;8.84;45.18
54920;BME280;63804;53.120;8.764;2023-02-19T10:26:01;102334.50;;;8.81;45.34
54920;BME280;63804;53.120;8.764;2023-02-19T10:28:32;102320.09;;;8.81;44.76
54920;BME280;63804;53.120;8.764;2023-02-19T10:31:01;102314.94;;;8.79;45.02
54920;BME280;63804;53.120;8.764;2023-02-19T10:33:27;102312.50;;;8.78;45.19
54920;BME280;63804;53.120;8.764;2023-02-19T10:36:02;102304.63;;;8.76;44.58
54920;BME280;63804;53.120;8.764;2023-02-19T10:38:34;102304.63;;;8.76;44.68
54920;BME280;63804;53.120;8.764;2023-02-19T10:41:12;102312.59;;;8.92;44.42
54920;BME280;63804;53.120;8.764;2023-02-19T10:43:41;102328.81;;;9.02;44.08
54920;BME280;63804;53.120;8.764;2023-02-19T10:46:23;102333.44;;;9.01;43.65
54920;BME280;63804;53.120;8.764;2023-02-19T10:49:01;102346.09;;;8.92;42.99
54920;BME280;63804;53.120;8.764;2023-02-19T10:51:34;102352.66;;;9.10;43.41
54920;BME280;63804;53.120;8.764;2023-02-19T10:54:16;102360.19;;;9.18;42.83
54920;BME280;63804;53.120;8.764;2023-02-19T10:56:43;102369.31;;;9.27;43.48
54920;BME280;63804;53.120;8.764;2023-02-19T11:04:21;102378.81;;;9.30;42.45
54920;BME280;63804;53.120;8.764;2023-02-19T11:06:47;102385.13;;;9.44;42.04
54920;BME280;63804;53.120;8.764;2023-02-19T11:09:30;102386.47;;;9.47;40.88
54920;BME280;63804;53.120;8.764;2023-02-19T11:11:58;102379.91;;;9.29;41.73
54920;BME280;63804;53.120;8.764;2023-02-19T11:14:25;102381.09;;;9.42;41.39
54920;BME280;63804;53.120;8.764;2023-02-19T11:16:55;102381.25;;;9.51;41.55
54920;BME280;63804;53.120;8.764;2023-02-19T11:19:26;102385.47;;;9.62;41.13
54920;BME280;63804;53.120;8.764;2023-02-19T11:21:52;102382.09;;;9.70;40.48
54920;BME280;63804;53.120;8.764;2023-02-19T11:26:48;102379.47;;;9.79;40.33
54920;BME280;63804;53.120;8.764;2023-02-19T11:29:20;102372.66;;;9.62;39.03
54920;BME280;63804;53.120;8.764;2023-02-19T11:31:47;102373.00;;;9.56;39.57
54920;BME280;63804;53.120;8.764;2023-02-19T11:36:39;102367.91;;;9.49;39.02
54920;BME280;63804;53.120;8.764;2023-02-19T11:39:19;102367.41;;;9.47;37.90
54920;BME280;63804;53.120;8.764;2023-02-19T11:50:37;102358.25;;;9.38;37.68
54920;BME280;63804;53.120;8.764;2023-02-19T11:58:54;102354.19;;;9.54;37.54
54920;BME280;63804;53.120;8.764;2023-02-19T12:13:16;102369.66;;;9.40;38.37
54920;BME280;63804;53.120;8.764;2023-02-19T12:27:25;102382.47;;;9.96;37.37
54920;BME280;63804;53.120;8.764;2023-02-19T12:38:28;102373.50;;;10.10;36.63
54920;BME280;63804;53.120;8.764;2023-02-19T12:44:00;102374.81;;;9.98;37.52
54920;BME280;63804;53.120;8.764;2023-02-19T12:46:37;102383.59;;;9.95;37.36
54920;BME280;63804;53.120;8.764;2023-02-19T12:49:37;102373.78;;;9.94;36.67
54920;BME280;63804;53.120;8.764;2023-02-19T12:54:44;102378.69;;;9.78;37.00
54920;BME280;63804;53.120;8.764;2023-02-19T12:57:23;102378.91;;;9.82;36.90
54920;BME280;63804;53.120;8.764;2023-02-19T13:00:11;102384.78;;;9.89;36.11
54920;BME280;63804;53.120;8.764;2023-02-19T13:03:05;102383.38;;;9.92;37.09
54920;BME280;63804;53.120;8.764;2023-02-19T13:05:39;102397.31;;;9.90;36.66
54920;BME280;63804;53.120;8.764;2023-02-19T13:10:39;102388.59;;;9.88;35.99
54920;BME280;63804;53.120;8.764;2023-02-19T13:13:14;102378.31;;;9.85;35.87
54920;BME280;63804;53.120;8.764;2023-02-19T13:15:45;102366.69;;;9.93;36.41
54920;BME280;63804;53.120;8.764;2023-02-19T13:18:17;102368.22;;;9.99;36.04
54920;BME280;63804;53.120;8.764;2023-02-19T13:20:44;102363.16;;;9.93;35.74
54920;BME280;63804;53.120;8.764;2023-02-19T13:23:29;102373.09;;;10.03;35.62
54920;BME280;63804;53.120;8.764;2023-02-19T13:29:04;102372.50;;;10.06;35.31
54920;BME280;63804;53.120;8.764;2023-02-19T13:34:57;102383.63;;;10.09;35.23
54920;BME280;63804;53.120;8.764;2023-02-19T13:37:25;102388.09;;;10.19;36.33
54920;BME280;63804;53.120;8.764;2023-02-19T13:39:52;102391.63;;;10.19;35.95
54920;BME280;63804;53.120;8.764;2023-02-19T13:42:30;102393.97;;;10.26;36.15
54920;BME280;63804;53.120;8.764;2023-02-19T13:44:56;102394.84;;;10.22;36.20
54920;BME280;63804;53.120;8.764;2023-02-19T13:50:21;102387.88;;;10.15;36.71
54920;BME280;63804;53.120;8.764;2023-02-19T13:52:48;102392.31;;;10.11;36.94
54920;BME280;63804;53.120;8.764;2023-02-19T14:01:18;102396.78;;;10.21;36.28
54920;BME280;63804;53.120;8.764;2023-02-19T14:04:08;102407.00;;;9.96;36.40
54920;BME280;63804;53.120;8.764;2023-02-19T14:14:44;102411.84;;;10.18;37.30
54920;BME280;63804;53.120;8.764;2023-02-19T14:31:09;102398.44;;;10.03;37.52
54920;BME280;63804;53.120;8.764;2023-02-19T14:33:43;102383.41;;;10.06;37.70
54920;BME280;63804;53.120;8.764;2023-02-19T14:39:00;102364.72;;;10.13;37.87
54920;BME280;63804;53.120;8.764;2023-02-19T14:41:29;102358.47;;;10.12;37.93
54920;BME280;63804;53.120;8.764;2023-02-19T14:43:58;102358.56;;;10.07;37.97
54920;BME280;63804;53.120;8.764;2023-02-19T14:46:36;102349.13;;;9.99;38.01
54920;BME280;63804;53.120;8.764;2023-02-19T14:52:43;102344.22;;;10.15;37.69
54920;BME280;63804;53.120;8.764;2023-02-19T14:55:26;102329.75;;;10.15;37.41
54920;BME280;63804;53.120;8.764;2023-02-19T14:57:55;102337.34;;;10.18;37.60
54920;BME280;63804;53.120;8.764;2023-02-19T15:00:26;102339.56;;;10.16;37.86
54920;BME280;63804;53.120;8.764;2023-02-19T15:02:53;102339.56;;;10.16;37.68
54920;BME280;63804;53.120;8.764;2023-02-19T15:05:30;102331.50;;;10.25;37.87
54920;BME280;63804;53.120;8.764;2023-02-19T15:08:00;102337.16;;;10.28;37.90
54920;BME280;63804;53.120;8.764;2023-02-19T15:10:29;102339.88;;;10.28;37.93
54920;BME280;63804;53.120;8.764;2023-02-19T15:13:06;102342.22;;;10.21;38.02
54920;BME280;63804;53.120;8.764;2023-02-19T15:15:38;102350.38;;;10.21;38.50
54920;BME280;63804;53.120;8.764;2023-02-19T15:18:06;102351.88;;;10.13;38.47
54920;BME280;63804;53.120;8.764;2023-02-19T15:20:36;102349.09;;;10.18;38.13
54920;BME280;63804;53.120;8.764;2023-02-19T15:23:04;102355.22;;;10.10;38.31